aviador You're here:

KAOO Decoded Metar

ALTOONA in PA, USA
Report Time2017-09-24 00:53:00
UTC Time2017-09-24 01:22:43
Flight Rules vfr VFR
WindCalm
Visibility9999 m
Phenomena:N/A
Clouds:N/A
Expected CloudBase > 1,600 ft AGL from Temp-Dew spread
CeilingNone
Temp20°C (ISA +8)
Dew Point16°C (78% RH)
QNH1021 hPa
Density Alt2,402 ft
Elevation1,493 ft
Report Wrong Elevation
Raw Report
KAOO 240053Z AUTO 00000KT 10SM CLR 20/16 A3016 RMK AO2 SLP206
T02000156=

Extra information for KAOO:More info

Metar Taf Metar & Taf Last 4 Metars F.Rules Stats Wind Profile Meteogram Temp Stats Airport Information Weather charts Add Link Nearby VenuesMetar ALERT Operation Metar Decoded Social comments

AIRNAV info for KAOO